Time;durP1;ratioP1;P1;durP2;ratioP2;P2;SDS_P1;SDS_P2;PMS_P1;PMS_P2;Temp;Humidity;BMP_temperature;BMP_pressure;BME280_temperature;BME280_humidity;BME280_pressure;Samples;Min_cycle;Max_cycle;Signal;HPM_P1;HPM_P2
2020/12/14 00:02:04;;;;;;;48.05;7.22;;;;;;;13.46;73.07;98392.75;5014217;28;20112;-90
2020/12/14 00:04:29;;;;;;;44.67;7.43;;;;;;;13.65;72.63;98390.69;5014203;28;20034;-91
2020/12/14 00:06:54;;;;;;;39.33;6.63;;;;;;;13.51;72.89;98383.50;5014202;28;20022;-90
2020/12/14 00:09:20;;;;;;;46.03;7.82;;;;;;;13.73;72.46;98392.47;5009868;28;20081;-91
2020/12/14 00:11:49;;;;;;;44.88;7.43;;;;;;;13.60;72.28;98387.72;4977038;28;20041;-91
2020/12/14 00:14:14;;;;;;;59.92;8.13;;;;;;;13.45;73.32;98396.38;4994872;28;20424;-90
2020/12/14 00:16:40;;;;;;;52.08;8.02;;;;;;;13.56;73.14;98381.16;4994463;28;20536;-91
2020/12/14 00:19:06;;;;;;;52.95;7.63;;;;;;;13.78;72.52;98385.63;5013348;28;20022;-92
2020/12/14 00:21:31;;;;;;;48.03;8.95;;;;;;;13.72;72.40;98380.25;5013837;28;20495;-91
2020/12/14 00:23:56;;;;;;;53.30;8.05;;;;;;;13.82;72.01;98372.94;5013823;28;20025;-91
2020/12/14 00:26:22;;;;;;;55.15;7.15;;;;;;;13.59;73.56;98394.03;5014178;28;20108;-91
2020/12/14 00:28:48;;;;;;;46.38;7.95;;;;;;;13.58;73.25;98374.72;5013744;28;20041;-91
2020/12/14 00:31:15;;;;;;;56.03;7.53;;;;;;;13.46;74.16;98376.91;4996058;28;20029;-91
2020/12/14 00:33:40;;;;;;;44.38;7.53;;;;;;;13.57;73.97;98365.19;4996765;28;20034;-90
2020/12/14 00:36:07;;;;;;;35.42;6.68;;;;;;;13.72;73.09;98365.25;4994019;28;20049;-90
2020/12/14 00:38:33;;;;;;;44.05;6.07;;;;;;;13.91;73.06;98379.00;4994059;28;20023;-90
2020/12/14 00:40:58;;;;;;;59.58;9.38;;;;;;;13.65;73.62;98370.41;4994114;28;20030;-90
2020/12/14 00:43:24;;;;;;;53.60;7.57;;;;;;;13.49;74.25;98368.69;4993847;28;20065;-90
2020/12/14 00:45:49;;;;;;;53.80;8.15;;;;;;;13.05;75.75;98384.13;4994224;28;20111;-90
2020/12/14 00:48:14;;;;;;;52.50;7.80;;;;;;;13.21;75.83;98388.53;5008436;28;20038;-90
2020/12/14 00:50:40;;;;;;;47.63;7.88;;;;;;;13.40;75.10;98385.53;5003210;28;20494;-89
2020/12/14 00:53:05;;;;;;;44.60;6.43;;;;;;;13.45;75.20;98398.19;4993700;28;20030;-89
2020/12/14 00:55:30;;;;;;;38.55;5.85;;;;;;;13.22;74.98;98406.00;4993501;28;20033;-89
2020/12/14 00:57:56;;;;;;;30.98;5.40;;;;;;;13.51;74.47;98402.78;4993640;28;20050;-89
2020/12/14 01:00:21;;;;;;;31.38;4.47;;;;;;;13.37;74.76;98393.78;4993499;28;20026;-89
2020/12/14 01:02:47;;;;;;;23.00;4.32;;;;;;;13.17;74.60;98377.53;4993304;28;20030;-90
2020/12/14 01:05:12;;;;;;;26.90;3.70;;;;;;;13.28;74.23;98378.97;4994224;28;20068;-90
2020/12/14 01:07:37;;;;;;;26.98;3.67;;;;;;;13.36;74.91;98376.31;4993438;28;20050;-90
2020/12/14 01:10:03;;;;;;;27.65;5.28;;;;;;;13.48;74.30;98369.66;4993880;28;20026;-90
2020/12/14 01:12:29;;;;;;;26.05;4.75;;;;;;;13.32;74.14;98385.56;4996309;28;20026;-90
2020/12/14 01:14:54;;;;;;;29.80;4.65;;;;;;;13.51;73.96;98370.31;4994560;28;20045;-90
2020/12/14 01:17:20;;;;;;;23.45;3.92;;;;;;;13.36;74.26;98372.88;4977444;28;20477;-89
2020/12/14 01:19:45;;;;;;;18.63;3.80;;;;;;;13.32;74.04;98374.19;4993733;28;20420;-89
2020/12/14 01:22:10;;;;;;;25.92;3.47;;;;;;;13.17;73.92;98379.31;4993580;28;20101;-90
2020/12/14 01:24:35;;;;;;;19.38;3.53;;;;;;;13.44;73.34;98372.81;4993013;28;20069;-90
2020/12/14 01:27:01;;;;;;;16.13;2.53;;;;;;;13.10;73.33;98369.47;4992948;28;20061;-90
2020/12/14 01:29:26;;;;;;;14.90;2.28;;;;;;;13.35;73.29;98373.84;4993058;28;20041;-89
2020/12/14 01:31:51;;;;;;;19.17;2.53;;;;;;;13.07;73.70;98366.34;5011417;28;20030;-90
2020/12/14 01:34:17;;;;;;;14.35;2.22;;;;;;;12.94;73.85;98330.03;4994726;28;20033;-90
2020/12/14 01:36:47;;;;;;;11.57;2.33;;;;;;;13.25;73.36;98293.16;4994837;28;20030;-90
2020/12/14 01:39:12;;;;;;;14.40;2.58;;;;;;;13.21;72.84;98323.50;5012303;28;20037;-90
2020/12/14 01:41:39;;;;;;;8.77;1.73;;;;;;;12.89;72.55;98311.25;5012359;28;20022;-90
2020/12/14 01:44:04;;;;;;;6.50;1.55;;;;;;;12.88;72.67;98343.88;5012377;28;20100;-90
2020/12/14 01:46:30;;;;;;;5.93;1.80;;;;;;;12.97;72.01;98324.41;4994674;28;20129;-90
2020/12/14 01:49:01;;;;;;;5.22;0.70;;;;;;;12.92;72.21;98337.28;4992861;28;20054;-90
2020/12/14 01:51:31;;;;;;;5.95;1.23;;;;;;;12.84;72.02;98342.56;4992824;28;20038;-89
2020/12/14 01:53:58;;;;;;;4.78;1.08;;;;;;;12.61;72.92;98335.38;4975101;28;20476;-90
2020/12/14 01:56:24;;;;;;;5.47;0.85;;;;;;;12.58;73.06;98354.16;4974993;28;20113;-90
2020/12/14 01:58:50;;;;;;;6.03;0.90;;;;;;;12.35;73.02;98368.97;4975138;28;20019;-89
2020/12/14 02:01:15;;;;;;;6.78;0.95;;;;;;;12.63;73.22;98364.16;5009608;28;20030;-90
2020/12/14 02:03:41;;;;;;;5.07;1.27;;;;;;;12.58;73.05;98371.72;5011973;28;20049;-91
2020/12/14 02:06:06;;;;;;;3.95;0.98;;;;;;;12.35;73.16;98366.34;5011950;28;20062;-90
2020/12/14 02:08:32;;;;;;;10.25;1.48;;;;;;;12.34;73.91;98381.28;5012116;28;20021;-90
2020/12/14 02:10:58;;;;;;;5.60;0.95;;;;;;;12.04;74.40;98380.16;5000390;28;20030;-91
2020/12/14 02:13:24;;;;;;;4.60;0.75;;;;;;;12.34;73.39;98394.44;4992940;28;20030;-90
2020/12/14 02:15:50;;;;;;;4.38;0.85;;;;;;;12.22;72.90;98372.09;4992395;28;20073;-90
2020/12/14 02:18:15;;;;;;;6.65;0.80;;;;;;;12.18;72.97;98371.59;4992366;28;20041;-90
2020/12/14 02:20:40;;;;;;;8.40;1.20;;;;;;;12.16;72.32;98389.34;4992464;28;20018;-90
2020/12/14 02:23:06;;;;;;;7.38;1.10;;;;;;;12.23;72.54;98385.09;4992274;28;20034;-90
2020/12/14 02:25:31;;;;;;;6.05;1.10;;;;;;;12.12;72.09;98382.78;5002036;28;20064;-91
2020/12/14 02:27:57;;;;;;;10.80;1.27;;;;;;;11.83;73.06;98370.91;5010567;28;20035;-91
2020/12/14 02:30:22;;;;;;;7.10;2.45;;;;;;;12.17;72.73;98364.72;5011916;28;20542;-91
2020/12/14 02:32:47;;;;;;;10.18;1.80;;;;;;;11.97;73.41;98387.06;5011859;28;20388;-90
2020/12/14 02:35:13;;;;;;;12.18;1.48;;;;;;;11.98;73.56;98375.53;5011928;28;20050;-91
2020/12/14 02:37:38;;;;;;;12.52;2.35;;;;;;;12.34;72.40;98380.47;5011922;28;20026;-92
2020/12/14 02:40:04;;;;;;;8.82;0.95;;;;;;;12.25;72.29;98388.38;4988584;28;20033;-91
2020/12/14 02:42:30;;;;;;;9.77;1.30;;;;;;;12.36;72.23;98392.50;4992247;28;20361;-91
2020/12/14 02:44:55;;;;;;;13.77;1.60;;;;;;;12.15;73.23;98390.34;4993375;28;20126;-90
2020/12/14 02:47:21;;;;;;;10.77;1.33;;;;;;;12.14;72.28;98391.31;4991948;28;20105;-91
2020/12/14 02:49:46;;;;;;;11.48;1.60;;;;;;;12.23;72.95;98400.88;4977307;28;20069;-91
2020/12/14 02:52:13;;;;;;;19.17;2.63;;;;;;;12.22;73.21;98399.25;4998839;28;20026;-90
2020/12/14 02:54:40;;;;;;;17.48;2.45;;;;;;;12.07;73.18;98417.47;4999243;28;20023;-90
2020/12/14 02:57:06;;;;;;;8.52;1.73;;;;;;;12.38;72.69;98414.22;4996585;28;20027;-90
2020/12/14 02:59:31;;;;;;;19.90;2.03;;;;;;;12.28;72.68;98403.84;4992854;28;20587;-91
2020/12/14 03:01:57;;;;;;;16.00;2.50;;;;;;;12.26;72.88;98400.56;4992162;28;20431;-90
2020/12/14 03:04:22;;;;;;;17.20;2.67;;;;;;;12.41;72.77;98395.44;4992197;28;20374;-91
2020/12/14 03:06:49;;;;;;;25.83;3.88;;;;;;;12.29;73.13;98408.13;4992191;28;20028;-91
2020/12/14 03:09:17;;;;;;;26.25;2.92;;;;;;;12.39;72.72;98386.91;4992173;28;20038;-91
2020/12/14 03:11:43;;;;;;;23.30;4.13;;;;;;;12.43;72.81;98390.84;5011033;28;20029;-91
2020/12/14 03:14:08;;;;;;;18.20;3.17;;;;;;;12.17;73.59;98385.75;4997617;28;20029;-91
2020/12/14 03:16:44;;;;;;;32.83;4.03;;;;;;;12.20;74.09;98364.34;5015011;28;20469;-92
2020/12/14 03:19:10;;;;;;;25.08;3.45;;;;;;;12.36;73.45;98383.78;5014874;28;20026;-91
2020/12/14 03:21:35;;;;;;;21.73;4.38;;;;;;;12.44;73.60;98375.88;5014991;28;20084;-91
2020/12/14 03:24:01;;;;;;;25.88;3.40;;;;;;;12.52;73.33;98362.72;5015430;28;20080;-91
2020/12/14 03:26:27;;;;;;;29.27;4.53;;;;;;;12.52;73.30;98356.59;4997144;28;20049;-90
2020/12/14 03:28:52;;;;;;;28.45;4.07;;;;;;;12.47;73.56;98367.66;5015754;28;20026;-91
2020/12/14 03:31:18;;;;;;;38.35;4.03;;;;;;;12.58;72.91;98377.00;5023321;28;20026;-90
2020/12/14 03:33:43;;;;;;;33.15;4.57;;;;;;;12.46;73.50;98381.78;5024259;28;20362;-90
2020/12/14 03:36:08;;;;;;;24.27;3.65;;;;;;;12.69;72.87;98387.19;5006193;28;20054;-92
2020/12/14 03:38:34;;;;;;;34.38;4.65;;;;;;;12.55;73.18;98388.69;5003509;28;20041;-92
2020/12/14 03:41:06;;;;;;;24.75;3.63;;;;;;;12.52;73.88;98394.31;4998660;28;20049;-91
2020/12/14 03:43:32;;;;;;;24.42;3.78;;;;;;;12.62;73.30;98387.06;4994978;28;20026;-91
2020/12/14 03:45:57;;;;;;;32.90;5.38;;;;;;;12.55;73.70;98393.16;4977975;28;20420;-90
2020/12/14 03:48:23;;;;;;;28.38;4.03;;;;;;;12.52;73.47;98382.94;4977548;28;20108;-90
2020/12/14 03:50:49;;;;;;;25.55;3.97;;;;;;;12.67;73.17;98387.34;4991332;28;20448;-91
2020/12/14 03:53:14;;;;;;;19.33;3.33;;;;;;;12.67;73.67;98387.34;5014480;28;20038;-91
2020/12/14 03:55:40;;;;;;;35.53;4.93;;;;;;;12.56;74.20;98397.41;5014522;28;20380;-91
2020/12/14 03:58:09;;;;;;;31.73;3.85;;;;;;;12.56;74.04;98398.25;5014482;28;20022;-91
2020/12/14 04:00:34;;;;;;;37.67;4.68;;;;;;;12.57;74.06;98401.69;5014406;28;20072;-90
2020/12/14 04:03:07;;;;;;;42.05;5.00;;;;;;;12.67;73.64;98392.63;4996649;28;20112;-91
2020/12/14 04:05:32;;;;;;;29.83;5.57;;;;;;;12.29;74.38;98405.47;4999777;28;20026;-90
2020/12/14 04:07:58;;;;;;;35.92;4.13;;;;;;;12.39;74.08;98399.25;4994505;28;20105;-91
2020/12/14 04:10:23;;;;;;;25.15;3.67;;;;;;;12.46;73.41;98398.41;4994355;28;20022;-91
2020/12/14 04:12:49;;;;;;;35.08;4.32;;;;;;;12.41;73.08;98399.91;4994526;28;20121;-91
2020/12/14 04:15:14;;;;;;;22.98;3.40;;;;;;;12.45;73.25;98395.94;4994554;28;20093;-90
2020/12/14 04:17:39;;;;;;;48.50;5.80;;;;;;;12.41;73.70;98405.97;4994531;28;20365;-91
2020/12/14 04:20:05;;;;;;;27.10;4.22;;;;;;;12.43;73.40;98416.34;5005048;28;20051;-91
2020/12/14 04:22:30;;;;;;;26.35;3.85;;;;;;;12.33;72.95;98415.69;5013747;28;20451;-92
2020/12/14 04:24:55;;;;;;;29.70;5.13;;;;;;;12.14;73.54;98427.34;5013105;28;20080;-91
2020/12/14 04:27:21;;;;;;;24.02;3.28;;;;;;;12.08;73.68;98434.91;5013693;28;20084;-91
2020/12/14 04:29:46;;;;;;;30.67;4.72;;;;;;;12.14;72.48;98433.41;5013964;28;20022;-91
2020/12/14 04:32:11;;;;;;;23.85;3.67;;;;;;;12.12;72.91;98440.66;5013582;28;20476;-91
2020/12/14 04:34:37;;;;;;;21.33;3.97;;;;;;;12.04;72.29;98441.47;4994350;28;20064;-91
2020/12/14 04:37:02;;;;;;;22.10;3.17;;;;;;;12.09;71.66;98438.38;5013777;28;20048;-91
2020/12/14 04:39:28;;;;;;;20.90;3.55;;;;;;;11.94;71.41;98446.03;5013637;28;20028;-91
2020/12/14 04:41:57;;;;;;;22.60;4.93;;;;;;;11.97;71.66;98427.31;5013420;28;20061;-91
2020/12/14 04:44:27;;;;;;;20.10;2.30;;;;;;;11.84;71.19;98438.25;5013938;28;20026;-91
2020/12/14 04:46:53;;;;;;;18.75;3.20;;;;;;;11.86;70.64;98420.53;5013471;28;20030;-91
2020/12/14 04:49:19;;;;;;;15.95;2.70;;;;;;;11.83;71.14;98447.16;5006856;28;20022;-91
2020/12/14 04:51:44;;;;;;;20.27;3.53;;;;;;;11.85;70.86;98441.75;4977225;28;20149;-91
2020/12/14 04:54:10;;;;;;;20.20;2.65;;;;;;;11.58;70.90;98445.44;4976484;28;20117;-91
2020/12/14 04:56:41;;;;;;;11.45;1.80;;;;;;;11.75;70.84;98444.50;4976020;28;20022;-91
2020/12/14 04:59:08;;;;;;;19.43;2.60;;;;;;;11.79;69.51;98442.34;4993662;28;20030;-91
2020/12/14 05:01:34;;;;;;;10.60;1.60;;;;;;;11.69;69.64;98445.16;4976049;28;20030;-91
2020/12/14 05:03:59;;;;;;;14.07;1.83;;;;;;;11.61;70.53;98448.56;4994493;28;20101;-91
2020/12/14 05:06:25;;;;;;;14.63;1.85;;;;;;;11.57;69.76;98449.03;4995489;28;20487;-91
2020/12/14 05:08:50;;;;;;;13.90;1.85;;;;;;;11.68;69.64;98452.19;4995427;28;20030;-92
2020/12/14 05:11:32;;;;;;;10.05;1.83;;;;;;;11.77;68.41;98452.22;4995470;28;20021;-91
2020/12/14 05:14:11;;;;;;;11.27;2.35;;;;;;;11.46;69.13;98444.88;5013048;28;20030;-91
2020/12/14 05:16:36;;;;;;;12.07;1.60;;;;;;;11.56;69.08;98444.75;5012953;28;20427;-91
2020/12/14 05:19:34;;;;;;;12.55;1.65;;;;;;;11.48;68.90;98443.75;5012738;28;20026;-91
2020/12/14 05:21:59;;;;;;;12.82;1.75;;;;;;;11.40;68.59;98450.78;4993042;28;20076;-91
2020/12/14 05:24:29;;;;;;;8.60;1.75;;;;;;;11.47;69.00;98449.16;4993179;28;20463;-91
2020/12/14 05:26:56;;;;;;;11.80;1.65;;;;;;;11.20;69.13;98445.75;4993271;28;20027;-91
2020/12/14 05:29:28;;;;;;;8.07;1.42;;;;;;;11.28;69.22;98437.91;4993044;28;20222;-91
2020/12/14 05:32:11;;;;;;;9.02;2.20;;;;;;;11.44;69.03;98452.91;4992947;28;20052;-91
2020/12/14 05:34:41;;;;;;;9.98;2.03;;;;;;;11.25;69.88;98458.41;4999099;28;20029;-91
2020/12/14 05:37:09;;;;;;;13.00;2.20;;;;;;;11.32;69.14;98456.81;5012110;28;20112;-91
2020/12/14 05:39:37;;;;;;;7.63;1.60;;;;;;;11.13;68.98;98449.97;4994954;28;20022;-90
2020/12/14 05:42:20;;;;;;;8.18;1.23;;;;;;;11.13;69.57;98467.53;5012587;28;20038;-91
2020/12/14 05:44:48;;;;;;;11.80;1.83;;;;;;;11.18;69.93;98470.53;5012853;28;20014;-91
2020/12/14 05:47:30;;;;;;;8.15;1.45;;;;;;;11.38;68.80;98474.56;5012643;28;20060;-90
2020/12/14 05:49:56;;;;;;;;;;;;;;;11.34;68.98;98477.69;5001983;28;20420;-91
2020/12/14 05:52:23;;;;;;;6.13;1.45;;;;;;;11.27;69.23;98483.53;4998259;28;19913;-91
2020/12/14 05:54:54;;;;;;;15.30;2.85;;;;;;;11.06;70.13;98489.19;5001180;28;20134;-90
2020/12/14 05:57:34;;;;;;;9.48;1.77;;;;;;;11.16;69.23;98491.69;5000192;28;20026;-91
2020/12/14 06:00:01;;;;;;;9.93;1.90;;;;;;;11.17;69.87;98498.59;4992867;28;20022;-91
2020/12/14 06:02:27;;;;;;;13.32;1.98;;;;;;;11.08;69.78;98502.97;4993111;28;20488;-91
2020/12/14 06:04:57;;;;;;;11.05;2.10;;;;;;;11.20;69.99;98494.84;4995952;28;20029;-91
2020/12/14 06:07:27;;;;;;;14.75;2.90;;;;;;;11.28;69.18;98500.16;4978356;28;20018;-91
2020/12/14 06:10:01;;;;;;;11.88;1.73;;;;;;;11.27;69.71;98519.50;4995622;28;20060;-90
2020/12/14 06:12:29;;;;;;;11.38;1.63;;;;;;;11.30;69.64;98522.66;4980830;28;20026;-90
2020/12/14 06:15:02;;;;;;;8.63;1.45;;;;;;;11.36;69.32;98515.94;5015763;28;20117;-90
2020/12/14 06:17:28;;;;;;;14.88;2.33;;;;;;;11.25;69.33;98519.66;5014683;28;20032;-92
2020/12/14 06:20:00;;;;;;;17.20;2.03;;;;;;;11.17;70.09;98522.22;5013322;28;20021;-91
2020/12/14 06:22:26;;;;;;;13.68;2.45;;;;;;;11.21;69.55;98520.13;5015189;28;20037;-91
2020/12/14 06:25:01;;;;;;;13.77;2.55;;;;;;;11.18;69.58;98530.94;5015324;28;20072;-91
2020/12/14 06:27:27;;;;;;;13.23;1.75;;;;;;;11.08;70.12;98537.13;5009004;28;20431;-91
2020/12/14 06:29:53;;;;;;;20.80;4.03;;;;;;;10.88;70.81;98538.25;4994069;28;20053;-91
2020/12/14 06:32:57;;;;;;;16.35;2.53;;;;;;;11.00;71.18;98539.69;4994233;28;20072;-91
2020/12/14 06:35:41;;;;;;;14.82;2.30;;;;;;;11.07;70.89;98542.50;4928010;28;20065;-91
2020/12/14 06:38:06;;;;;;;12.32;2.65;;;;;;;11.09;70.93;98553.69;4993741;28;20022;-91
2020/12/14 06:40:56;;;;;;;15.93;2.20;;;;;;;10.81;71.85;98560.84;4993498;28;20077;-90
2020/12/14 06:43:29;;;;;;;19.50;3.00;;;;;;;11.04;70.91;98556.78;5008216;28;20396;-91
2020/12/14 06:45:58;;;;;;;16.48;2.10;;;;;;;11.04;70.78;98556.78;5014406;28;20480;-91
2020/12/14 06:48:44;;;;;;;13.98;2.75;;;;;;;10.98;70.71;98541.66;5016821;28;20033;-91
2020/12/14 06:51:14;;;;;;;17.73;2.42;;;;;;;10.70;72.54;98554.03;5016843;28;20480;-91
2020/12/14 06:53:42;;;;;;;16.83;2.83;;;;;;;10.83;72.11;98553.66;5016877;28;20029;-91
2020/12/14 06:56:09;;;;;;;13.13;2.92;;;;;;;10.95;70.63;98541.13;5016912;28;20049;-90
2020/12/14 06:58:39;;;;;;;18.75;2.97;;;;;;;11.16;70.46;98543.38;4980857;28;20018;-90
2020/12/14 07:01:35;;;;;;;22.77;3.08;;;;;;;11.10;71.45;98553.53;4978608;28;20034;-91
2020/12/14 07:04:02;;;;;;;20.30;3.08;;;;;;;11.08;71.12;98550.25;4996229;28;20041;-92
2020/12/14 07:06:28;;;;;;;13.70;3.08;;;;;;;11.04;71.30;98551.53;4996443;28;20029;-91
2020/12/14 07:08:54;;;;;;;31.30;3.70;;;;;;;10.79;72.20;98557.56;4995957;28;20023;-91
2020/12/14 07:11:21;;;;;;;20.40;2.83;;;;;;;10.91;71.73;98553.72;4997894;28;20030;-91
2020/12/14 07:13:47;;;;;;;25.25;4.63;;;;;;;11.03;71.79;98551.69;4997721;28;20052;-92
2020/12/14 07:16:13;;;;;;;27.42;3.63;;;;;;;11.02;71.64;98558.75;5015219;28;20022;-90
2020/12/14 07:18:40;;;;;;;32.08;5.03;;;;;;;10.97;71.57;98558.34;5015296;28;20018;-92
2020/12/14 07:21:17;;;;;;;30.08;5.32;;;;;;;11.08;71.12;98557.31;5015488;28;20022;-91
2020/12/14 07:23:45;;;;;;;24.10;3.40;;;;;;;11.15;71.43;98558.34;4997899;28;20435;-91
2020/12/14 07:26:15;;;;;;;22.02;3.10;;;;;;;10.97;72.01;98537.34;5015350;28;20038;-92
2020/12/14 07:28:47;;;;;;;22.65;3.80;;;;;;;11.14;71.76;98561.94;4996763;28;20480;-92
2020/12/14 07:31:21;;;;;;;21.38;2.92;;;;;;;11.14;71.78;98556.69;4982633;28;20026;-91
2020/12/14 07:33:58;;;;;;;35.00;4.07;;;;;;;11.00;72.36;98560.69;5003448;28;20034;-92
2020/12/14 07:36:26;;;;;;;28.75;3.95;;;;;;;11.06;72.50;98569.78;5002867;28;20034;-91
2020/12/14 07:38:56;;;;;;;19.38;3.45;;;;;;;10.96;72.61;98572.47;4995883;28;20050;-91
2020/12/14 07:41:23;;;;;;;27.92;3.83;;;;;;;10.96;72.78;98577.72;4996247;28;20069;-91
2020/12/14 07:43:49;;;;;;;24.95;3.85;;;;;;;10.88;73.15;98581.13;4995654;28;20124;-91
2020/12/14 07:46:16;;;;;;;24.70;4.18;;;;;;;11.03;72.53;98573.50;4991465;28;20061;-92
2020/12/14 07:48:41;;;;;;;22.33;3.42;;;;;;;10.99;72.95;98580.03;4983611;28;20034;-90
2020/12/14 07:51:07;;;;;;;27.20;4.70;;;;;;;11.01;72.79;98579.91;4996844;28;20076;-90
2020/12/14 07:53:32;;;;;;;26.23;4.70;;;;;;;11.25;72.41;98587.13;4996735;28;20383;-91
2020/12/14 07:56:04;;;;;;;20.13;3.40;;;;;;;11.23;72.02;98575.97;5026316;28;20025;-91
2020/12/14 07:58:29;;;;;;;31.60;4.78;;;;;;;11.09;73.25;98588.66;5024769;28;20436;-90
2020/12/14 08:00:54;;;;;;;35.90;5.05;;;;;;;11.19;72.38;98590.38;5021772;28;20096;-91
2020/12/14 08:03:22;;;;;;;32.08;4.22;;;;;;;11.42;71.79;98585.47;5023570;28;20061;-90
2020/12/14 08:05:48;;;;;;;26.40;4.93;;;;;;;11.47;72.06;98599.78;5022394;28;20029;-91
2020/12/14 08:08:14;;;;;;;27.10;4.25;;;;;;;11.38;72.17;98594.63;5014512;28;20041;-91
2020/12/14 08:10:40;;;;;;;38.88;7.30;;;;;;;11.24;72.52;98582.88;4997538;28;20041;-90
2020/12/14 08:13:11;;;;;;;33.53;4.53;;;;;;;11.55;71.74;98595.53;4998216;28;20034;-92
2020/12/14 08:15:38;;;;;;;27.38;4.32;;;;;;;11.37;72.41;98593.78;4994893;28;20037;-91
2020/12/14 08:18:13;;;;;;;28.58;4.45;;;;;;;11.57;71.72;98602.31;5013206;28;20038;-92
2020/12/14 08:20:42;;;;;;;39.10;4.72;;;;;;;11.33;71.97;98600.31;5013700;28;20488;-92
2020/12/14 08:23:19;;;;;;;28.70;4.28;;;;;;;11.47;71.82;98607.69;5013600;28;20045;-92
2020/12/14 08:25:51;;;;;;;36.80;4.70;;;;;;;11.47;71.07;98578.75;4996098;28;20017;-92
2020/12/14 08:28:30;;;;;;;27.95;4.07;;;;;;;11.78;71.32;98595.84;4991195;28;20026;-92
2020/12/14 08:30:55;;;;;;;39.60;5.10;;;;;;;11.69;71.25;98587.94;5003603;28;20021;-91
2020/12/14 08:33:21;;;;;;;32.55;4.53;;;;;;;11.70;71.36;98588.75;5010384;28;20033;-91
2020/12/14 08:35:54;;;;;;;28.17;4.75;;;;;;;11.87;70.52;98614.16;5010532;28;20483;-91
2020/12/14 08:38:25;;;;;;;40.97;5.38;;;;;;;11.68;70.64;98614.38;5001032;28;20397;-90
2020/12/14 08:41:03;;;;;;;34.00;6.10;;;;;;;11.76;71.13;98614.41;4982250;28;20501;-91
2020/12/14 08:43:33;;;;;;;33.63;6.90;;;;;;;11.61;71.73;98627.31;4988465;28;20062;-90
2020/12/14 08:46:04;;;;;;;37.83;6.93;;;;;;;11.67;71.54;98620.59;5033897;23;20057;-83
2020/12/14 08:48:31;;;;;;;33.33;4.67;;;;;;;11.76;71.34;98632.00;5035411;28;20029;-82
2020/12/14 08:51:18;;;;;;;26.20;5.28;;;;;;;11.82;70.97;98640.06;5039557;28;20040;-83
2020/12/14 08:53:45;;;;;;;38.63;5.85;;;;;;;11.61;71.77;98629.94;5033095;28;20041;-83
2020/12/14 08:56:16;;;;;;;33.53;6.35;;;;;;;11.68;71.06;98638.84;5032972;28;20044;-83
2020/12/14 08:58:58;;;;;;;31.65;4.72;;;;;;;11.89;70.75;98641.16;5032715;28;20037;-89
2020/12/14 09:01:26;;;;;;;27.30;5.05;;;;;;;12.00;69.94;98632.16;5032857;28;20404;-82
2020/12/14 09:03:54;;;;;;;24.65;4.88;;;;;;;12.13;69.86;98630.91;5014724;28;20067;-83
2020/12/14 09:06:26;;;;;;;34.13;4.10;;;;;;;12.25;69.56;98638.34;5011095;28;20026;-83
2020/12/14 09:09:12;;;;;;;29.13;4.90;;;;;;;12.22;69.01;98625.53;5027909;28;20075;-82
2020/12/14 09:11:49;;;;;;;26.52;3.22;;;;;;;12.31;69.42;98634.28;5032763;28;20407;-83
2020/12/14 09:14:20;;;;;;;30.35;4.40;;;;;;;12.56;69.08;98637.81;5028526;28;20112;-82
2020/12/14 09:16:52;;;;;;;31.10;6.47;;;;;;;12.52;69.34;98635.63;5027448;28;20037;-83
2020/12/14 09:19:27;;;;;;;26.80;4.90;;;;;;;12.49;69.66;98644.69;5031740;28;20549;-82
2020/12/14 09:21:53;;;;;;;30.02;5.15;;;;;;;12.32;69.98;98635.09;5021034;28;20531;-82
2020/12/14 09:24:20;;;;;;;27.63;4.35;;;;;;;12.25;70.67;98651.50;5030920;28;20056;-82
2020/12/14 09:26:48;;;;;;;29.17;4.63;;;;;;;12.53;69.93;98651.28;5032358;28;20021;-82
2020/12/14 09:29:14;;;;;;;28.08;4.75;;;;;;;12.58;70.12;98663.97;5014280;28;20135;-82
2020/12/14 09:31:47;;;;;;;32.72;5.75;;;;;;;12.53;70.74;98674.97;5013926;28;20113;-82
2020/12/14 09:34:13;;;;;;;37.33;5.50;;;;;;;12.47;71.68;98665.91;5029687;28;20030;-82
2020/12/14 09:36:38;;;;;;;28.17;3.83;;;;;;;12.25;71.34;98664.66;5014640;28;20033;-82
2020/12/14 09:39:03;;;;;;;31.40;5.28;;;;;;;12.04;71.81;98678.19;5013843;28;20022;-82
2020/12/14 09:41:30;;;;;;;37.50;5.70;;;;;;;12.52;71.40;98683.88;5032287;28;20021;-82
2020/12/14 09:43:56;;;;;;;29.15;4.63;;;;;;;12.19;71.72;98678.47;5031476;28;20112;-82
2020/12/14 09:46:27;;;;;;;31.65;3.95;;;;;;;12.24;71.62;98691.13;5014355;28;20167;-82
2020/12/14 09:48:53;;;;;;;27.75;4.28;;;;;;;12.60;70.29;98681.28;5014265;28;20610;-82
2020/12/14 09:51:18;;;;;;;28.88;4.50;;;;;;;12.50;69.70;98675.31;5025204;28;20041;-82
2020/12/14 09:53:44;;;;;;;23.90;4.03;;;;;;;12.46;70.36;98680.06;5022773;28;20166;-81
2020/12/14 09:56:09;;;;;;;24.42;4.53;;;;;;;12.50;69.80;98691.09;5027307;28;20363;-82
2020/12/14 09:58:34;;;;;;;23.90;3.38;;;;;;;12.42;69.66;98678.72;5031353;28;20018;-82
2020/12/14 10:01:00;;;;;;;22.60;3.95;;;;;;;12.53;69.17;98692.59;5015797;28;20045;-83
2020/12/14 10:03:25;;;;;;;21.42;3.80;;;;;;;12.42;70.11;98699.78;5032217;28;20123;-82
2020/12/14 10:05:50;;;;;;;15.90;3.03;;;;;;;12.23;70.01;98710.56;5029864;28;20086;-82
2020/12/14 10:08:16;;;;;;;20.45;3.42;;;;;;;12.40;69.99;98695.66;5024436;28;20119;-83
2020/12/14 10:10:43;;;;;;;25.45;4.57;;;;;;;12.26;68.85;98704.97;4997730;28;20425;-82
2020/12/14 10:13:08;;;;;;;27.48;3.35;;;;;;;12.12;68.71;98697.66;5031538;28;20108;-82
2020/12/14 10:15:34;;;;;;;23.65;3.13;;;;;;;12.33;69.15;98694.66;5030974;28;20116;-83
2020/12/14 10:17:59;;;;;;;25.83;3.80;;;;;;;12.52;69.08;98702.31;5032413;28;20049;-83
2020/12/14 10:20:24;;;;;;;22.33;3.47;;;;;;;12.40;68.40;98704.38;5032042;28;20111;-83
2020/12/14 10:22:50;;;;;;;19.13;3.65;;;;;;;12.52;68.86;98704.09;5034327;28;20034;-82
2020/12/14 10:25:15;;;;;;;23.15;3.05;;;;;;;12.73;67.95;98690.50;5035438;28;20084;-83
2020/12/14 10:27:41;;;;;;;25.73;3.63;;;;;;;12.55;67.91;98693.25;5035947;28;20451;-83
2020/12/14 10:30:06;;;;;;;18.02;3.17;;;;;;;12.15;68.51;98703.44;5036277;28;20108;-83
2020/12/14 10:32:32;;;;;;;18.73;3.05;;;;;;;12.49;68.40;98692.91;5034893;28;20036;-83
2020/12/14 10:34:57;;;;;;;16.58;2.95;;;;;;;12.65;67.08;98702.66;5032007;28;20028;-83
2020/12/14 10:37:22;;;;;;;17.25;2.90;;;;;;;13.22;66.28;98695.88;5017569;28;20476;-82
2020/12/14 10:39:48;;;;;;;17.70;2.88;;;;;;;13.29;65.84;98691.63;5020230;28;20452;-83
2020/12/14 10:42:14;;;;;;;20.90;3.00;;;;;;;13.31;65.38;98700.22;5029999;28;20536;-83
2020/12/14 10:44:39;;;;;;;14.55;2.30;;;;;;;13.69;65.38;98704.00;5034926;28;20436;-83
2020/12/14 10:47:06;;;;;;;13.55;2.88;;;;;;;13.03;65.11;98692.59;5035504;28;20068;-83
2020/12/14 10:49:32;;;;;;;24.05;3.00;;;;;;;12.78;66.68;98689.06;5034448;28;20295;-82
2020/12/14 10:51:58;;;;;;;10.82;2.38;;;;;;;12.87;64.84;98703.06;5035382;28;20028;-83
2020/12/14 10:54:23;;;;;;;18.52;2.63;;;;;;;12.64;66.39;98708.94;5033297;28;20053;-83
2020/12/14 10:56:49;;;;;;;18.73;2.60;;;;;;;12.74;66.93;98708.78;5018906;28;20498;-83
2020/12/14 10:59:14;;;;;;;19.05;2.85;;;;;;;12.33;66.32;98719.16;5022341;28;20346;-83
2020/12/14 11:01:39;;;;;;;12.63;2.60;;;;;;;12.49;67.48;98713.13;5035237;28;20020;-83
2020/12/14 11:04:04;;;;;;;14.10;3.35;;;;;;;12.73;67.09;98722.94;5032166;28;20468;-83
2020/12/14 11:06:33;;;;;;;18.00;2.92;;;;;;;12.70;67.23;98716.19;5033289;28;20022;-83
2020/12/14 11:08:59;;;;;;;24.20;3.67;;;;;;;12.81;67.02;98706.34;5035197;28;20025;-83
2020/12/14 11:11:31;;;;;;;16.67;3.33;;;;;;;12.87;66.78;98701.28;5034412;28;20155;-83
2020/12/14 11:13:59;;;;;;;19.38;2.35;;;;;;;13.00;67.67;98711.34;5017404;28;20021;-83
2020/12/14 11:16:26;;;;;;;16.92;3.35;;;;;;;13.31;66.67;98713.41;5016418;28;20029;-83
2020/12/14 11:18:52;;;;;;;22.00;4.20;;;;;;;12.77;67.88;98707.63;5034169;28;20029;-83
2020/12/14 11:21:17;;;;;;;22.15;3.22;;;;;;;13.17;66.61;98724.53;5029944;28;20037;-82
2020/12/14 11:23:42;;;;;;;27.20;4.55;;;;;;;13.26;66.54;98731.47;5033543;28;21170;-82
2020/12/14 11:26:09;;;;;;;18.65;3.92;;;;;;;13.44;66.92;98729.53;5034366;28;20049;-82
2020/12/14 11:28:34;;;;;;;19.05;3.53;;;;;;;13.32;67.13;98728.22;5035318;28;20029;-82
2020/12/14 11:31:00;;;;;;;33.97;4.95;;;;;;;13.29;66.04;98750.47;5034432;28;20026;-82